Pagina principale
METAR-TAF:

METAR-TAF

Aeroporti :

Monte Cimone, Italia

latitudine: 44-12N, longitudine: 010-42E, altezza: 2165 m

Osservazione

Il bollettino è stato emesso 1 ora e 16 minuti fa, alle 17:55 UTC
Vento 5 kt da sud-ovest
Temperature 3°C
Umidità 93%
Pressione 1006 hPa
Visibilità minore di 50 m
pioggia debole, nebbia

METAR: LIVC 191755Z 23005KT 0000 -RA FG VV/// 03/02 Q1006

Ora: 21:11 (19:11 UTC)


TAF: mancante

Osservazioni e previsioni meteorologiche di più di 4000 aeroporti (messaggi METAR e TAF).

Le stazioni disponibili sono rappresentate dai dischi gialli e rossi sulla carta.

Puntare il mouse per vedere il nome della stazione.

Clicca sopra per visualizzare le osservazioni e previsioni meteorologiche.

Per cambiare la mappa : fare clic sui pulsanti verdi con una croce nera per ingrandire, il pulsante verde con un trattino per diminuire, o sulla freccia verde per le mappe adiacenti.


METAR-TAF: